createdAt,value
2019-04-10T00:01:01.476Z,13.40
2019-04-10T00:03:36.721Z,13.40
2019-04-10T00:06:02.719Z,13.30
2019-04-10T00:08:32.496Z,13.50
2019-04-10T00:11:04.945Z,13.60
2019-04-10T00:13:34.904Z,13.50
2019-04-10T00:16:05.508Z,13.80
2019-04-10T00:18:35.361Z,13.70
2019-04-10T00:21:09.143Z,13.50
2019-04-10T00:23:39.876Z,13.10
2019-04-10T00:26:09.949Z,13.50
2019-04-10T00:28:43.509Z,13.30
2019-04-10T00:31:13.766Z,12.90
2019-04-10T00:33:43.439Z,12.70
2019-04-10T00:36:14.085Z,12.90
2019-04-10T00:38:44.215Z,11.90
2019-04-10T00:41:16.260Z,12.10
2019-04-10T00:43:46.891Z,12.10
2019-04-10T00:46:17.972Z,11.90
2019-04-10T00:48:48.748Z,11.90
2019-04-10T00:51:19.302Z,12.10
2019-04-10T00:53:49.769Z,12.20
2019-04-10T00:56:21.279Z,12.90
2019-04-10T00:58:51.238Z,12.10
2019-04-10T01:01:21.498Z,12.20
2019-04-10T01:03:51.367Z,13.10
2019-04-10T01:06:21.983Z,12.30
2019-04-10T01:08:52.981Z,12.30
2019-04-10T01:11:23.194Z,11.60
2019-04-10T01:13:53.723Z,11.20
2019-04-10T01:16:23.451Z,11.90
2019-04-10T01:18:53.333Z,11.90
2019-04-10T01:21:23.175Z,11.20
2019-04-10T01:23:53.235Z,11.00
2019-04-10T01:26:25.048Z,11.60
2019-04-10T01:28:56.072Z,11.20
2019-04-10T01:31:26.903Z,10.90
2019-04-10T01:33:56.881Z,11.30
2019-04-10T01:36:29.017Z,11.40
2019-04-10T01:38:58.630Z,11.40
2019-04-10T01:41:30.769Z,11.60
2019-04-10T01:44:01.606Z,11.70
2019-04-10T01:46:33.599Z,11.60
2019-04-10T01:49:02.642Z,12.50
2019-04-10T01:51:33.025Z,11.80
2019-04-10T01:54:03.100Z,11.50
2019-04-10T01:56:35.093Z,10.30
2019-04-10T01:59:04.126Z,10.50
2019-04-10T02:01:38.841Z,11.20
2019-04-10T02:04:08.879Z,10.50
2019-04-10T02:06:39.626Z,11.10
2019-04-10T02:09:11.443Z,11.10
2019-04-10T02:11:41.891Z,10.50
2019-04-10T02:14:12.112Z,11.30
2019-04-10T02:16:41.816Z,11.10
2019-04-10T02:19:12.187Z,10.40
2019-04-10T02:21:44.703Z,10.00
2019-04-10T02:24:14.666Z,10.00
2019-04-10T02:26:46.330Z,9.90
2019-04-10T02:29:15.928Z,10.40
2019-04-10T02:31:46.261Z,10.50
2019-04-10T02:34:17.173Z,10.40
2019-04-10T02:36:48.694Z,10.30
2019-04-10T02:39:27.547Z,9.60
2019-04-10T02:41:52.340Z,9.80
2019-04-10T02:44:23.066Z,9.60
2019-04-10T02:46:55.618Z,9.80
2019-04-10T02:49:28.005Z,10.70
2019-04-10T02:51:58.956Z,10.60
2019-04-10T02:54:30.848Z,10.50
2019-04-10T02:57:01.410Z,10.00
2019-04-10T02:59:33.510Z,10.30
2019-04-10T03:02:04.317Z,10.10
2019-04-10T03:04:35.191Z,10.10
2019-04-10T03:07:05.087Z,9.50
2019-04-10T03:09:50.784Z,9.60
2019-04-10T03:12:06.382Z,9.70
2019-04-10T03:14:39.224Z,10.10
2019-04-10T03:17:10.106Z,9.40
2019-04-10T03:19:39.759Z,9.50
2019-04-10T03:22:10.446Z,9.20
2019-04-10T03:24:42.003Z,8.80
2019-04-10T03:27:12.296Z,8.60
2019-04-10T03:29:44.863Z,10.50
2019-04-10T03:32:41.669Z,10.40
2019-04-10T03:35:17.372Z,9.20
2019-04-10T03:37:48.644Z,10.50
2019-04-10T03:40:19.475Z,9.60
2019-04-10T03:42:49.613Z,9.60
2019-04-10T03:45:20.256Z,9.60
2019-04-10T03:47:51.414Z,10.10
2019-04-10T03:50:21.095Z,9.30
2019-04-10T03:52:53.766Z,8.90
2019-04-10T03:55:23.436Z,8.80
2019-04-10T03:57:55.238Z,9.30
2019-04-10T04:00:26.541Z,9.40
2019-04-10T04:02:57.351Z,8.60
2019-04-10T04:05:27.007Z,9.40
2019-04-10T04:07:57.139Z,9.00
2019-04-10T04:10:28.821Z,9.60
2019-04-10T04:13:00.206Z,10.10
2019-04-10T04:15:31.630Z,10.50
2019-04-10T04:18:02.529Z,10.20
2019-04-10T04:20:33.110Z,9.00
2019-04-10T04:23:03.501Z,11.00
2019-04-10T04:25:34.823Z,11.60
2019-04-10T04:28:04.668Z,11.30
2019-04-10T04:30:34.799Z,10.30
2019-04-10T04:33:04.823Z,9.50
2019-04-10T04:35:36.693Z,8.80
2019-04-10T04:38:07.146Z,8.80
2019-04-10T04:40:37.754Z,9.20
2019-04-10T04:43:07.864Z,9.70
2019-04-10T04:45:37.798Z,9.70
2019-04-10T04:48:07.743Z,10.00
2019-04-10T04:50:38.243Z,8.80
2019-04-10T04:53:08.725Z,8.60
2019-04-10T04:55:39.472Z,9.20
2019-04-10T04:58:10.182Z,8.60
2019-04-10T05:00:39.810Z,8.50
2019-04-10T05:05:39.560Z,8.20
2019-04-10T05:08:09.957Z,9.70
2019-04-10T05:10:39.850Z,8.80
2019-04-10T05:13:10.300Z,7.40
2019-04-10T05:15:40.842Z,9.00
2019-04-10T05:18:10.637Z,8.80
2019-04-10T05:20:45.948Z,8.50
2019-04-10T05:23:11.947Z,9.60
2019-04-10T05:25:41.556Z,9.60
2019-04-10T05:28:11.283Z,9.50
2019-04-10T05:30:41.141Z,9.40
2019-04-10T05:33:11.997Z,10.10
2019-04-10T05:35:41.931Z,10.90
2019-04-10T05:38:12.272Z,10.80
2019-04-10T05:40:42.191Z,11.50
2019-04-10T05:43:11.844Z,10.80
2019-04-10T05:45:42.213Z,12.20
2019-04-10T05:48:12.051Z,11.30
2019-04-10T05:50:53.081Z,11.40
2019-04-10T05:53:13.005Z,10.50
2019-04-10T05:55:42.530Z,9.90
2019-04-10T05:58:12.111Z,10.20
2019-04-10T06:00:41.665Z,10.20
2019-04-10T06:03:12.413Z,9.40
2019-04-10T06:05:42.415Z,11.20
2019-04-10T06:08:12.051Z,11.80
2019-04-10T06:10:41.672Z,12.60
2019-04-10T06:13:11.285Z,12.40
2019-04-10T06:15:41.289Z,11.70
2019-04-10T06:18:12.788Z,10.70
2019-04-10T06:20:43.771Z,10.20
2019-04-10T06:23:13.335Z,10.00
2019-04-10T06:25:43.610Z,10.20
2019-04-10T06:28:13.209Z,10.80
2019-04-10T06:30:43.814Z,10.70
2019-04-10T06:33:13.339Z,10.70
2019-04-10T06:35:43.012Z,10.80
2019-04-10T06:38:12.788Z,11.20
2019-04-10T06:40:44.001Z,11.20
2019-04-10T06:45:44.071Z,10.20
2019-04-10T06:48:13.664Z,9.50
2019-04-10T06:50:44.443Z,10.10
2019-04-10T06:53:16.208Z,10.60
2019-04-10T06:55:46.783Z,10.40
2019-04-10T06:58:16.478Z,10.40
2019-04-10T07:00:49.680Z,11.20
2019-04-10T07:03:17.474Z,12.00
2019-04-10T07:06:03.628Z,11.90
2019-04-10T07:08:24.417Z,11.20
2019-04-10T07:11:02.591Z,11.90
2019-04-10T07:13:26.101Z,11.10
2019-04-10T07:15:58.418Z,11.50
2019-04-10T07:18:28.454Z,10.90
2019-04-10T07:21:01.583Z,10.60
2019-04-10T07:23:32.380Z,11.60
2019-04-10T07:26:03.739Z,11.70
2019-04-10T07:28:36.234Z,11.60
2019-04-10T07:31:08.264Z,11.10
2019-04-10T07:33:37.571Z,11.50
2019-04-10T07:36:11.393Z,11.50
2019-04-10T07:38:39.279Z,11.90
2019-04-10T07:41:15.452Z,12.20
2019-04-10T07:43:41.347Z,11.70
2019-04-10T07:46:10.915Z,11.50
2019-04-10T07:48:41.421Z,10.70
2019-04-10T07:51:11.308Z,10.40
2019-04-10T07:53:41.460Z,10.80
2019-04-10T07:56:16.176Z,11.90
2019-04-10T07:58:42.624Z,12.10
2019-04-10T08:01:14.082Z,12.10
2019-04-10T08:03:43.935Z,11.20
2019-04-10T08:06:13.521Z,11.90
2019-04-10T08:08:46.635Z,11.60
2019-04-10T08:11:17.497Z,11.60
2019-04-10T08:13:47.560Z,12.60
2019-04-10T08:16:17.300Z,12.10
2019-04-10T08:18:47.790Z,12.20
2019-04-10T08:21:19.578Z,11.70
2019-04-10T08:23:51.461Z,11.50
2019-04-10T08:26:21.386Z,11.90
2019-04-10T08:28:51.774Z,12.40
2019-04-10T08:31:22.371Z,13.00
2019-04-10T08:33:52.907Z,13.90
2019-04-10T08:36:23.440Z,13.40
2019-04-10T08:38:53.542Z,13.20
2019-04-10T08:41:23.369Z,12.30
2019-04-10T08:43:55.167Z,12.40
2019-04-10T08:46:25.982Z,12.40
2019-04-10T08:48:56.000Z,12.80
2019-04-10T08:51:25.771Z,12.30
2019-04-10T08:53:56.725Z,12.10
2019-04-10T08:56:26.485Z,13.00
2019-04-10T08:58:57.623Z,13.60
2019-04-10T09:01:27.237Z,13.50
2019-04-10T09:03:57.407Z,13.00
2019-04-10T09:06:29.028Z,12.70
2019-04-10T09:08:59.355Z,12.70
2019-04-10T09:11:32.947Z,12.70
2019-04-10T09:14:03.582Z,13.20
2019-04-10T09:16:34.232Z,12.80
2019-04-10T09:19:04.051Z,13.20
2019-04-10T09:21:34.612Z,13.10
2019-04-10T09:24:05.707Z,13.20
2019-04-10T09:26:36.165Z,13.60
2019-04-10T09:29:06.732Z,13.00
2019-04-10T09:31:36.523Z,13.50
2019-04-10T09:34:07.566Z,13.50
2019-04-10T09:36:37.571Z,13.80
2019-04-10T09:39:09.525Z,13.90
2019-04-10T09:41:39.968Z,14.20
2019-04-10T09:44:10.315Z,14.00
2019-04-10T09:46:40.826Z,14.00
2019-04-10T09:49:10.775Z,13.90
2019-04-10T09:51:42.397Z,14.30
2019-04-10T09:54:13.330Z,14.30
2019-04-10T09:56:44.248Z,13.80
2019-04-10T09:59:14.323Z,13.60
2019-04-10T10:01:44.481Z,13.40
2019-04-10T10:04:15.357Z,13.20
2019-04-10T10:06:46.064Z,13.10
2019-04-10T10:09:15.797Z,13.20
2019-04-10T10:11:45.400Z,14.10
2019-04-10T10:14:14.998Z,13.80
2019-04-10T10:16:46.267Z,13.70
2019-04-10T10:19:18.274Z,13.90
2019-04-10T10:21:50.413Z,13.60
2019-04-10T10:24:20.167Z,13.70
2019-04-10T10:26:49.813Z,13.80
2019-04-10T10:29:19.774Z,13.80
2019-04-10T10:31:51.227Z,14.30
2019-04-10T10:34:20.964Z,13.70
2019-04-10T10:36:52.109Z,13.30
2019-04-10T10:39:23.068Z,13.70
2019-04-10T10:41:53.043Z,14.20
2019-04-10T10:44:23.767Z,13.10
2019-04-10T10:46:53.634Z,13.70
2019-04-10T10:49:24.278Z,14.20
2019-04-10T10:51:55.688Z,13.30
2019-04-10T10:54:27.831Z,13.40
2019-04-10T10:56:58.715Z,13.50
2019-04-10T10:59:29.287Z,13.30
2019-04-10T11:02:00.161Z,13.90
2019-04-10T11:04:29.992Z,13.40
2019-04-10T11:07:02.573Z,13.90
2019-04-10T11:09:32.584Z,13.70
2019-04-10T11:12:03.530Z,13.50
2019-04-10T11:14:35.467Z,13.40
2019-04-10T11:17:05.415Z,14.10
2019-04-10T11:19:35.518Z,13.70
2019-04-10T11:22:07.420Z,13.80
2019-04-10T11:24:38.313Z,13.40
2019-04-10T11:27:10.372Z,13.70
2019-04-10T11:29:45.258Z,13.50
2019-04-10T11:32:14.837Z,13.50
2019-04-10T11:34:46.685Z,13.30
2019-04-10T11:39:50.798Z,12.90
2019-04-10T11:42:21.186Z,12.90
2019-04-10T11:44:54.463Z,13.00
2019-04-10T11:47:24.848Z,13.40
2019-04-10T11:49:57.614Z,13.10
2019-04-10T11:52:33.745Z,13.20
2019-04-10T11:55:08.738Z,13.00
2019-04-10T12:00:04.158Z,13.30
2019-04-10T12:02:34.350Z,13.40
2019-04-10T12:05:10.861Z,13.20
2019-04-10T12:08:01.920Z,13.20
2019-04-10T12:12:39.426Z,13.30
2019-04-10T12:15:10.196Z,13.50
2019-04-10T12:17:40.265Z,13.40
2019-04-10T12:20:13.091Z,13.70
2019-04-10T12:22:43.905Z,13.50
2019-04-10T12:25:14.912Z,13.50
2019-04-10T12:27:45.309Z,13.40
2019-04-10T12:30:15.466Z,13.60
2019-04-10T12:32:47.184Z,13.60
2019-04-10T12:35:17.222Z,13.60
2019-04-10T12:37:57.807Z,14.20
2019-04-10T12:40:21.520Z,13.80
2019-04-10T12:42:52.354Z,13.30
2019-04-10T12:45:24.314Z,13.80
2019-04-10T12:47:55.079Z,13.70
2019-04-10T12:50:25.007Z,13.40
2019-04-10T12:52:54.787Z,13.70
2019-04-10T12:55:26.273Z,13.40
2019-04-10T12:58:06.041Z,13.60
2019-04-10T13:00:29.789Z,13.20
2019-04-10T13:03:02.872Z,13.50
2019-04-10T13:05:34.162Z,14.00
2019-04-10T13:08:14.664Z,13.90
2019-04-10T13:10:37.739Z,13.30
2019-04-10T13:13:07.556Z,13.40
2019-04-10T13:15:37.462Z,13.90
2019-04-10T13:18:07.947Z,14.30
2019-04-10T13:20:37.844Z,13.90
2019-04-10T13:23:08.666Z,14.10
2019-04-10T13:25:38.608Z,14.20
2019-04-10T13:28:08.729Z,13.70
2019-04-10T13:30:47.076Z,13.90
2019-04-10T13:33:10.724Z,13.80
2019-04-10T13:35:43.553Z,14.20
2019-04-10T13:38:23.251Z,14.40
2019-04-10T13:40:45.868Z,14.60
2019-04-10T13:43:15.988Z,14.50
2019-04-10T13:45:48.691Z,14.10
2019-04-10T13:48:18.299Z,14.20
2019-04-10T13:50:48.700Z,14.00
2019-04-10T13:53:20.256Z,14.70
2019-04-10T13:55:51.051Z,14.30
2019-04-10T13:58:21.801Z,14.50
2019-04-10T14:00:52.609Z,14.50
2019-04-10T14:03:23.104Z,13.50
2019-04-10T14:05:52.961Z,13.60
2019-04-10T14:08:33.933Z,13.80
2019-04-10T14:10:54.980Z,14.10
2019-04-10T14:13:25.775Z,13.90
2019-04-10T14:15:56.042Z,14.00
2019-04-10T14:18:26.235Z,13.70
2019-04-10T14:20:57.875Z,13.80
2019-04-10T14:23:33.203Z,14.10
2019-04-10T14:26:43.969Z,14.00
2019-04-10T14:29:14.352Z,13.60
2019-04-10T14:31:53.193Z,13.80
2019-04-10T14:34:22.979Z,14.10
2019-04-10T14:36:52.745Z,14.20
2019-04-10T14:39:22.905Z,13.90
2019-04-10T14:41:54.036Z,13.80
2019-04-10T14:44:23.740Z,14.00
2019-04-10T14:46:53.880Z,13.80
2019-04-10T14:49:23.691Z,14.20
2019-04-10T14:51:53.251Z,13.60
2019-04-10T14:54:23.841Z,13.90
2019-04-10T14:56:54.582Z,13.90
2019-04-10T14:59:24.303Z,13.70
2019-04-10T15:01:54.507Z,14.30
2019-04-10T15:04:24.840Z,13.80
2019-04-10T15:06:56.093Z,13.30
2019-04-10T15:09:26.296Z,13.60
2019-04-10T15:11:55.830Z,13.40
2019-04-10T15:14:25.915Z,13.90
2019-04-10T15:17:01.776Z,13.80
2019-04-10T15:19:26.996Z,13.50
2019-04-10T15:21:56.771Z,13.80
2019-04-10T15:24:27.920Z,13.80
2019-04-10T15:26:57.634Z,13.20
2019-04-10T15:29:28.079Z,13.70
2019-04-10T15:31:57.876Z,13.50
2019-04-10T15:34:28.268Z,13.60
2019-04-10T15:36:58.485Z,13.90
2019-04-10T15:39:34.785Z,14.10
2019-04-10T15:41:59.593Z,13.50
2019-04-10T15:44:30.106Z,13.30
2019-04-10T15:47:10.662Z,13.50
2019-04-10T15:49:32.361Z,13.40
2019-04-10T15:52:01.984Z,13.70
2019-04-10T15:54:32.084Z,13.50
2019-04-10T15:57:02.623Z,13.60
2019-04-10T15:59:32.393Z,13.70
2019-04-10T16:02:02.136Z,13.70
2019-04-10T16:04:33.757Z,13.60
2019-04-10T16:07:04.158Z,13.80
2019-04-10T16:09:44.902Z,13.40
2019-04-10T16:12:12.887Z,13.20
2019-04-10T16:14:42.450Z,13.00
2019-04-10T16:17:29.941Z,13.20
2019-04-10T16:20:17.531Z,13.10
2019-04-10T16:22:54.012Z,12.90
2019-04-10T16:25:30.153Z,13.20
2019-04-10T16:28:02.109Z,13.50
2019-04-10T16:30:32.831Z,12.80
2019-04-10T16:33:04.958Z,12.90
2019-04-10T16:35:36.550Z,13.20
2019-04-10T16:38:06.904Z,13.20
2019-04-10T16:40:38.497Z,12.80
2019-04-10T16:43:08.170Z,13.00
2019-04-10T16:45:38.565Z,12.60
2019-04-10T16:48:08.588Z,12.70
2019-04-10T16:50:38.758Z,12.60
2019-04-10T16:53:09.849Z,13.00
2019-04-10T16:55:39.507Z,13.10
2019-04-10T16:58:09.593Z,13.20
2019-04-10T17:00:39.697Z,13.10
2019-04-10T17:03:09.378Z,12.40
2019-04-10T17:05:39.770Z,12.80
2019-04-10T17:08:09.783Z,12.70
2019-04-10T17:10:39.388Z,12.90
2019-04-10T17:13:09.104Z,12.40
2019-04-10T17:15:39.831Z,12.60
2019-04-10T17:18:10.716Z,12.50
2019-04-10T17:20:40.762Z,12.70
2019-04-10T17:23:10.333Z,12.50
2019-04-10T17:25:40.145Z,13.00
2019-04-10T17:28:10.212Z,13.20
2019-04-10T17:30:40.070Z,13.60
2019-04-10T17:33:11.055Z,12.40
2019-04-10T17:35:43.462Z,12.50
2019-04-10T17:38:14.366Z,12.10
2019-04-10T17:40:49.901Z,12.20
2019-04-10T17:43:15.118Z,12.30
2019-04-10T17:45:44.901Z,12.50
2019-04-10T17:48:15.637Z,12.50
2019-04-10T17:50:45.717Z,12.90
2019-04-10T17:53:17.216Z,12.90
2019-04-10T17:55:47.677Z,12.60
2019-04-10T17:58:17.427Z,12.50
2019-04-10T18:00:49.402Z,11.70
2019-04-10T18:03:19.124Z,12.00
2019-04-10T18:05:48.828Z,12.80
2019-04-10T18:08:18.939Z,12.60
2019-04-10T18:10:52.207Z,12.60
2019-04-10T18:13:20.509Z,12.60
2019-04-10T18:15:50.601Z,12.60
2019-04-10T18:18:20.257Z,12.20
2019-04-10T18:20:51.046Z,12.30
2019-04-10T18:23:20.838Z,12.60
2019-04-10T18:25:50.535Z,11.80
2019-04-10T18:28:21.283Z,11.70
2019-04-10T18:30:50.915Z,11.60
2019-04-10T18:33:20.804Z,11.60
2019-04-10T18:35:51.173Z,11.40
2019-04-10T18:38:21.621Z,12.10
2019-04-10T18:40:58.048Z,12.10
2019-04-10T18:43:24.519Z,12.20
2019-04-10T18:46:06.192Z,12.70
2019-04-10T18:48:26.987Z,12.70
2019-04-10T18:50:59.276Z,12.50
2019-04-10T18:53:29.027Z,12.30
2019-04-10T18:55:58.693Z,12.40
2019-04-10T18:58:31.886Z,11.60
2019-04-10T19:01:19.335Z,11.50
2019-04-10T19:04:07.835Z,12.30
2019-04-10T19:06:58.741Z,12.10
2019-04-10T19:09:30.838Z,11.90
2019-04-10T19:12:02.617Z,12.80
2019-04-10T19:14:36.428Z,12.40
2019-04-10T19:17:05.303Z,12.20
2019-04-10T19:19:40.409Z,11.70
2019-04-10T19:22:09.605Z,12.20
2019-04-10T19:24:39.402Z,12.90
2019-04-10T19:27:09.620Z,13.10
2019-04-10T19:29:42.451Z,12.80
2019-04-10T19:32:20.369Z,13.30
2019-04-10T19:34:51.722Z,13.40
2019-04-10T19:37:22.768Z,13.10
2019-04-10T19:39:52.762Z,13.40
2019-04-10T19:42:24.928Z,13.40
2019-04-10T19:44:56.509Z,13.00
2019-04-10T19:47:28.428Z,12.30
2019-04-10T19:49:59.241Z,12.00
2019-04-10T19:52:30.766Z,13.00
2019-04-10T19:55:00.292Z,12.70
2019-04-10T19:57:31.024Z,12.70
2019-04-10T20:00:00.951Z,13.20
2019-04-10T20:02:31.038Z,12.20
2019-04-10T20:05:01.112Z,11.50
2019-04-10T20:07:31.178Z,12.60
2019-04-10T20:10:03.765Z,12.50
2019-04-10T20:12:34.872Z,13.10
2019-04-10T20:15:06.460Z,13.30
2019-04-10T20:17:36.083Z,13.30
2019-04-10T20:20:06.887Z,13.50
2019-04-10T20:22:37.015Z,14.00
2019-04-10T20:25:08.673Z,12.40
2019-04-10T20:27:38.321Z,12.50
2019-04-10T20:30:09.776Z,13.30
2019-04-10T20:32:39.569Z,13.20
2019-04-10T20:35:09.891Z,12.70
2019-04-10T20:37:39.771Z,12.30
2019-04-10T20:40:11.894Z,12.00
2019-04-10T20:42:42.686Z,12.90
2019-04-10T20:45:14.233Z,11.30
2019-04-10T20:47:43.767Z,12.40
2019-04-10T20:50:13.916Z,12.70
2019-04-10T20:52:43.761Z,12.20
2019-04-10T20:55:13.337Z,11.80
2019-04-10T20:57:43.925Z,11.60
2019-04-10T21:00:28.025Z,11.80
2019-04-10T21:02:58.814Z,12.30
2019-04-10T21:05:29.688Z,12.80
2019-04-10T21:08:01.995Z,12.80
2019-04-10T21:10:31.751Z,12.60
2019-04-10T21:13:01.379Z,11.90
2019-04-10T21:15:33.342Z,11.70
2019-04-10T21:18:03.092Z,10.70
2019-04-10T21:20:34.877Z,10.60
2019-04-10T21:23:05.549Z,11.20
2019-04-10T21:25:35.248Z,10.50
2019-04-10T21:28:05.213Z,11.00
2019-04-10T21:31:06.084Z,11.40
2019-04-10T21:33:57.866Z,10.90
2019-04-10T21:36:28.389Z,11.90
2019-04-10T21:38:57.995Z,11.10
2019-04-10T21:41:28.435Z,11.30
2019-04-10T21:44:00.480Z,10.80
2019-04-10T21:46:30.610Z,12.30
2019-04-10T21:49:02.173Z,12.70
2019-04-10T21:51:33.487Z,12.50
2019-04-10T21:54:04.936Z,11.00
2019-04-10T21:56:35.176Z,10.90
2019-04-10T21:59:05.480Z,11.30
2019-04-10T22:01:35.428Z,10.70
2019-04-10T22:04:08.128Z,11.80
2019-04-10T22:07:09.765Z,12.00
2019-04-10T22:09:47.411Z,12.60
2019-04-10T22:12:28.007Z,12.30
2019-04-10T22:14:52.593Z,11.70
2019-04-10T22:17:22.649Z,11.20
2019-04-10T22:19:52.832Z,11.90
2019-04-10T22:22:24.523Z,11.50
2019-04-10T22:24:54.746Z,12.50
2019-04-10T22:27:25.513Z,13.10
2019-04-10T22:29:56.326Z,13.20
2019-04-10T22:32:26.924Z,13.20
2019-04-10T22:34:57.719Z,13.10
2019-04-10T22:37:27.797Z,12.30
2019-04-10T22:39:58.625Z,12.60
2019-04-10T22:42:37.862Z,12.00
2019-04-10T22:45:00.338Z,12.40
2019-04-10T22:47:30.195Z,12.70
2019-04-10T22:50:01.031Z,13.40
2019-04-10T22:52:34.560Z,12.80
2019-04-10T22:55:04.328Z,13.20
2019-04-10T22:57:34.812Z,13.70
2019-04-10T23:00:05.334Z,12.60
2019-04-10T23:02:38.503Z,12.80
2019-04-10T23:05:10.284Z,13.40
2019-04-10T23:07:41.410Z,13.50
2019-04-10T23:10:15.607Z,13.30
2019-04-10T23:12:57.333Z,12.70
2019-04-10T23:15:17.593Z,13.20
2019-04-10T23:17:48.474Z,12.20
2019-04-10T23:20:20.204Z,12.80
2019-04-10T23:22:50.638Z,12.80
2019-04-10T23:25:20.570Z,13.20
2019-04-10T23:27:52.132Z,12.30
2019-04-10T23:30:21.784Z,12.70
2019-04-10T23:32:51.401Z,13.10
2019-04-10T23:35:21.312Z,13.70
2019-04-10T23:37:51.276Z,13.70
2019-04-10T23:40:21.099Z,13.70
2019-04-10T23:43:02.735Z,13.80
2019-04-10T23:45:23.896Z,13.80
2019-04-10T23:47:53.534Z,13.50
2019-04-10T23:50:24.399Z,13.60
2019-04-10T23:52:56.664Z,13.80
2019-04-10T23:55:26.301Z,13.80
2019-04-10T23:57:56.171Z,13.10
